BAW19W KAUS-EGLL
Flight info
| Callsign | BAW19W |
|---|---|
| Flight time | N/A |
| Altitude | 35000 |
| Route | ELOEL3 KLNGR DCT FUZ DCT KF27E DCT KK42G DCT KK54I/N0490F370 DCT KG66K DCT KG78M DCT KP90O DCT SSM DCT ROUND DCT JANJO/M084F390 NATT GOMUP/N0473F390 DCT GINGA DCT KELLY L10 WAL UY53 NUGRA NUGRA2H |
| Aircraft | A35K/H-SBDE1E2E3GHIJ1J3J4J5J6M1M2P2RWXYZ/LB1D1 |
Departure
| Time | 2026-04-27 23:48 |
|---|---|
| Airport | Austin Bergstrom International Airport (KAUS) |
Arrival
| Time | N/A |
|---|---|
| Airport | London Heathrow Airport (EGLL) |
| Time | Latitude | Longitude | Altitude | Speed | Heading |
|---|---|---|---|---|---|
| 2026-04-27 22:41 | 30.20287 | -97.66234 | 533 ft | 0 kts | 249° |
| 2026-04-27 23:34 | 30.20293 | -97.66214 | 533 ft | 4 kts | 253° |
| 2026-04-27 23:34 | 30.20301 | -97.66184 | 535 ft | 4 kts | 253° |
| 2026-04-27 23:34 | 30.20311 | -97.66157 | 533 ft | 3 kts | 221° |
| 2026-04-27 23:35 | 30.20329 | -97.66143 | 533 ft | 4 kts | 187° |
| 2026-04-27 23:35 | 30.20356 | -97.66145 | 533 ft | 4 kts | 175° |
| 2026-04-27 23:35 | 30.20360 | -97.66145 | 533 ft | 0 kts | 176° |
| 2026-04-27 23:39 | 30.20351 | -97.66145 | 533 ft | 2 kts | 176° |
| 2026-04-27 23:39 | 30.20338 | -97.66137 | 533 ft | 3 kts | 154° |
| 2026-04-27 23:39 | 30.20315 | -97.66128 | 533 ft | 4 kts | 166° |
| 2026-04-27 23:39 | 30.20280 | -97.66124 | 533 ft | 6 kts | 177° |
| 2026-04-27 23:40 | 30.20233 | -97.66122 | 533 ft | 7 kts | 178° |
| 2026-04-27 23:40 | 30.20176 | -97.66120 | 533 ft | 9 kts | 179° |
| 2026-04-27 23:40 | 30.20112 | -97.66118 | 533 ft | 9 kts | 179° |
| 2026-04-27 23:40 | 30.20063 | -97.66117 | 533 ft | 6 kts | 181° |
| 2026-04-27 23:41 | 30.20041 | -97.66143 | 533 ft | 5 kts | 246° |
| 2026-04-27 23:41 | 30.20036 | -97.66186 | 533 ft | 6 kts | 266° |
| 2026-04-27 23:41 | 30.20034 | -97.66244 | 533 ft | 8 kts | 268° |
| 2026-04-27 23:41 | 30.20033 | -97.66315 | 533 ft | 10 kts | 269° |
| 2026-04-27 23:42 | 30.20031 | -97.66370 | 533 ft | 5 kts | 258° |
| 2026-04-27 23:42 | 30.20005 | -97.66388 | 533 ft | 4 kts | 188° |
| 2026-04-27 23:42 | 30.20000 | -97.66388 | 533 ft | 0 kts | 185° |
| 2026-04-27 23:42 | 30.19998 | -97.66389 | 533 ft | 1 kts | 185° |
| 2026-04-27 23:43 | 30.19982 | -97.66390 | 533 ft | 4 kts | 182° |
| 2026-04-27 23:43 | 30.19945 | -97.66390 | 533 ft | 7 kts | 178° |
| 2026-04-27 23:43 | 30.19917 | -97.66360 | 533 ft | 5 kts | 108° |
| 2026-04-27 23:43 | 30.19914 | -97.66310 | 533 ft | 7 kts | 89° |
| 2026-04-27 23:44 | 30.19915 | -97.66245 | 533 ft | 9 kts | 89° |
| 2026-04-27 23:44 | 30.19917 | -97.66168 | 533 ft | 11 kts | 88° |
| 2026-04-27 23:44 | 30.19919 | -97.66077 | 533 ft | 12 kts | 89° |
| 2026-04-27 23:44 | 30.19933 | -97.66002 | 533 ft | 8 kts | 43° |
| 2026-04-27 23:45 | 30.19988 | -97.65991 | 533 ft | 9 kts | 0° |
| 2026-04-27 23:45 | 30.20056 | -97.65992 | 533 ft | 11 kts | 359° |
| 2026-04-27 23:45 | 30.20136 | -97.65993 | 533 ft | 12 kts | 358° |
| 2026-04-27 23:45 | 30.20226 | -97.65997 | 533 ft | 14 kts | 358° |
| 2026-04-27 23:46 | 30.20307 | -97.65999 | 533 ft | 10 kts | 358° |
| 2026-04-27 23:46 | 30.20358 | -97.65977 | 533 ft | 7 kts | 56° |
| 2026-04-27 23:46 | 30.20370 | -97.65916 | 533 ft | 9 kts | 86° |
| 2026-04-27 23:46 | 30.20372 | -97.65848 | 534 ft | 4 kts | 89° |
| 2026-04-27 23:47 | 30.20372 | -97.65817 | 535 ft | 4 kts | 88° |
| 2026-04-27 23:47 | 30.20363 | -97.65797 | 535 ft | 2 kts | 140° |
| 2026-04-27 23:47 | 30.20344 | -97.65792 | 534 ft | 4 kts | 170° |
| 2026-04-27 23:47 | 30.20323 | -97.65790 | 534 ft | 0 kts | 177° |
| 2026-04-27 23:48 | 30.20245 | -97.65785 | 532 ft | 38 kts | 177° |
| 2026-04-27 23:48 | 30.19722 | -97.65773 | 531 ft | 110 kts | 179° |
| 2026-04-27 23:48 | 30.18750 | -97.65749 | 538 ft | 168 kts | 179° |
| 2026-04-27 23:48 | 30.17569 | -97.65729 | 1262 ft | 165 kts | 179° |
| 2026-04-27 23:49 | 30.16406 | -97.65694 | 1895 ft | 174 kts | 178° |
| 2026-04-27 23:49 | 30.15131 | -97.65634 | 2150 ft | 193 kts | 177° |
| 2026-04-27 23:49 | 30.13722 | -97.65545 | 2406 ft | 214 kts | 178° |
| 2026-04-27 23:49 | 30.12201 | -97.65102 | 2577 ft | 240 kts | 151° |
| 2026-04-27 23:50 | 30.10956 | -97.63728 | 2907 ft | 258 kts | 122° |
| 2026-04-27 23:50 | 30.10407 | -97.61718 | 3450 ft | 270 kts | 94° |
| 2026-04-27 23:50 | 30.10731 | -97.59582 | 4115 ft | 276 kts | 67° |
| 2026-04-27 23:50 | 30.11866 | -97.57784 | 4730 ft | 282 kts | 41° |
| 2026-04-27 23:51 | 30.13600 | -97.56697 | 5308 ft | 288 kts | 15° |
| 2026-04-27 23:51 | 30.15603 | -97.56506 | 5907 ft | 292 kts | 356° |
| 2026-04-27 23:51 | 30.17620 | -97.56855 | 6504 ft | 295 kts | 342° |
| 2026-04-27 23:51 | 30.19572 | -97.57606 | 7185 ft | 296 kts | 337° |
| 2026-04-27 23:52 | 30.21472 | -97.58482 | 7834 ft | 299 kts | 335° |
| 2026-04-27 23:52 | 30.23397 | -97.59429 | 8503 ft | 302 kts | 334° |
| 2026-04-27 23:52 | 30.25332 | -97.60409 | 9156 ft | 305 kts | 333° |
| 2026-04-27 23:52 | 30.27283 | -97.61413 | 9848 ft | 307 kts | 333° |
| 2026-04-27 23:53 | 30.29236 | -97.62421 | 10566 ft | 309 kts | 333° |
| 2026-04-27 23:53 | 30.31243 | -97.63464 | 10957 ft | 324 kts | 332° |
| 2026-04-27 23:53 | 30.33351 | -97.64567 | 11264 ft | 341 kts | 332° |
| 2026-04-27 23:53 | 30.35561 | -97.65723 | 11553 ft | 356 kts | 332° |
| 2026-04-27 23:54 | 30.37862 | -97.66927 | 11817 ft | 370 kts | 332° |
| 2026-04-27 23:54 | 30.40245 | -97.68173 | 12075 ft | 382 kts | 332° |
| 2026-04-27 23:54 | 30.42704 | -97.69458 | 12361 ft | 392 kts | 332° |
| 2026-04-27 23:54 | 30.45206 | -97.70766 | 12807 ft | 397 kts | 332° |
| 2026-04-27 23:55 | 30.47731 | -97.72085 | 13331 ft | 399 kts | 332° |
| 2026-04-27 23:55 | 30.50269 | -97.73413 | 13886 ft | 400 kts | 332° |
| 2026-04-27 23:55 | 30.52809 | -97.74743 | 14431 ft | 402 kts | 332° |
| 2026-04-27 23:55 | 30.55363 | -97.76082 | 14964 ft | 403 kts | 331° |
| 2026-04-27 23:56 | 30.57892 | -97.77410 | 15495 ft | 404 kts | 331° |
| 2026-04-27 23:56 | 30.60460 | -97.78759 | 16017 ft | 406 kts | 331° |
| 2026-04-27 23:56 | 30.63041 | -97.80115 | 16563 ft | 407 kts | 330° |
| 2026-04-27 23:56 | 30.65629 | -97.81476 | 17108 ft | 408 kts | 330° |